Time;durP1;ratioP1;P1;durP2;ratioP2;P2;SDS_P1;SDS_P2;PMS_P1;PMS_P2;Temp;Humidity;BMP_temperature;BMP_pressure;BME280_temperature;BME280_humidity;BME280_pressure;Samples;Min_cycle;Max_cycle;Signal;HPM_P1;HPM_P2
2023/10/02 00:01:07;;;;;;;13.93;9.27;;;;;;;13.53;77.96;98627.91;5032056;28;20493;-75
2023/10/02 00:03:39;;;;;;;12.23;9.43;;;;;;;13.45;78.80;98634.38;5031152;28;20496;-75
2023/10/02 00:06:06;;;;;;;13.77;9.10;;;;;;;13.42;79.06;98623.06;5035683;28;20464;-76
2023/10/02 00:08:40;;;;;;;10.57;8.83;;;;;;;13.50;78.75;98616.59;5039111;28;20483;-76
2023/10/02 00:11:35;;;;;;;11.60;8.67;;;;;;;13.45;78.93;98628.94;5036035;28;20530;-76
2023/10/02 00:14:18;;;;;;;13.50;9.60;;;;;;;13.63;78.30;98625.63;5032710;28;20460;-75
2023/10/02 00:16:58;;;;;;;16.53;10.03;;;;;;;13.61;78.60;98624.16;5031026;28;20556;-75
2023/10/02 00:19:29;;;;;;;11.30;9.43;;;;;;;13.64;78.53;98629.19;5033948;28;20463;-76
2023/10/02 00:21:59;;;;;;;10.60;8.63;;;;;;;13.76;77.79;98631.06;5038558;28;20480;-75
2023/10/02 00:24:28;;;;;;;10.10;8.77;;;;;;;13.71;78.11;98628.13;5037585;28;20463;-75
2023/10/02 00:26:58;;;;;;;12.47;9.20;;;;;;;13.66;78.27;98630.63;5032473;28;20514;-75
2023/10/02 00:29:25;;;;;;;11.13;8.77;;;;;;;13.59;78.61;98628.97;5044838;28;20491;-76
2023/10/02 00:31:52;;;;;;;11.33;9.27;;;;;;;13.56;79.24;98626.66;5031083;28;20472;-76
2023/10/02 00:34:30;;;;;;;14.23;9.43;;;;;;;13.60;78.81;98623.31;5031510;28;20481;-76
2023/10/02 00:36:59;;;;;;;12.63;10.00;;;;;;;13.60;78.92;98627.91;5044368;28;20781;-75
2023/10/02 00:39:31;;;;;;;12.10;9.43;;;;;;;13.56;79.08;98626.66;5026695;28;20500;-76
2023/10/02 00:42:15;;;;;;;13.37;10.10;;;;;;;13.51;79.12;98619.13;5038957;28;20803;-75
2023/10/02 00:44:51;;;;;;;12.40;9.07;;;;;;;13.63;78.75;98619.34;5030288;28;20579;-75
2023/10/02 00:47:35;;;;;;;12.60;9.47;;;;;;;13.55;79.03;98622.25;5037479;28;21008;-75
2023/10/02 00:50:08;;;;;;;13.23;9.80;;;;;;;13.52;79.24;98622.66;5039178;28;20450;-75
2023/10/02 00:52:36;;;;;;;12.93;10.03;;;;;;;13.49;79.15;98609.47;5041989;28;20473;-75
2023/10/02 00:55:06;;;;;;;15.13;9.10;;;;;;;13.58;78.79;98616.41;5029811;28;20476;-75
2023/10/02 00:57:35;;;;;;;12.70;9.63;;;;;;;13.57;78.99;98617.44;5034446;28;20462;-75
2023/10/02 01:00:06;;;;;;;14.50;9.67;;;;;;;13.51;79.23;98610.13;5033940;28;20477;-75
2023/10/02 01:02:35;;;;;;;20.13;9.00;;;;;;;13.55;78.98;98616.81;5034125;28;20475;-75
2023/10/02 01:05:04;;;;;;;11.53;8.83;;;;;;;13.44;79.38;98612.81;5038763;28;20548;-75
2023/10/02 01:07:33;;;;;;;13.30;9.07;;;;;;;13.49;79.38;98615.75;5037543;28;20465;-75
2023/10/02 01:10:08;;;;;;;12.67;9.40;;;;;;;13.47;79.40;98614.28;5033695;28;20450;-75
2023/10/02 01:12:43;;;;;;;12.90;9.07;;;;;;;13.54;79.04;98605.09;5029507;28;20498;-75
2023/10/02 01:15:12;;;;;;;12.53;9.20;;;;;;;13.45;79.08;98601.72;5031874;28;20594;-75
2023/10/02 01:17:40;;;;;;;11.13;8.37;;;;;;;13.32;79.63;98607.13;5034336;28;20452;-75
2023/10/02 01:20:20;;;;;;;14.43;9.20;;;;;;;13.30;79.63;98601.09;5037864;28;20952;-75
2023/10/02 01:22:51;;;;;;;12.40;8.97;;;;;;;13.25;80.17;98600.88;5030788;28;20928;-75
2023/10/02 01:25:23;;;;;;;11.03;8.60;;;;;;;13.21;80.60;98604.19;5029342;28;20463;-75
2023/10/02 01:27:55;;;;;;;11.13;8.33;;;;;;;13.21;80.75;98607.75;5038594;28;20517;-75
2023/10/02 01:30:23;;;;;;;13.77;10.03;;;;;;;13.18;80.78;98605.44;5033722;28;20457;-76
2023/10/02 01:33:06;;;;;;;10.67;8.60;;;;;;;13.12;81.00;98598.91;5030908;28;21159;-75
2023/10/02 01:35:36;;;;;;;11.83;9.17;;;;;;;13.24;80.30;98598.34;5034989;28;20473;-75
2023/10/02 01:38:09;;;;;;;10.60;8.10;;;;;;;13.24;80.58;98604.63;5036569;28;20462;-76
2023/10/02 01:40:37;;;;;;;11.48;8.90;;;;;;;13.17;80.73;98602.94;5034060;28;20499;-75
2023/10/02 01:43:12;;;;;;;12.80;9.23;;;;;;;13.14;81.33;98601.41;5036415;28;20204;-75
2023/10/02 01:45:43;;;;;;;14.80;9.87;;;;;;;13.16;80.82;98607.53;5041744;28;20474;-76
2023/10/02 01:48:13;;;;;;;13.20;9.63;;;;;;;13.07;81.47;98611.44;5030806;28;21267;-75
2023/10/02 01:50:41;;;;;;;11.30;9.02;;;;;;;13.03;81.85;98612.88;5035699;28;20230;-76
2023/10/02 01:53:26;;;;;;;14.35;9.73;;;;;;;12.95;82.18;98604.94;5036050;28;20607;-75
2023/10/02 01:56:00;;;;;;;11.17;9.67;;;;;;;13.03;81.98;98596.56;5034858;28;20308;-76
2023/10/02 01:58:29;;;;;;;10.68;9.10;;;;;;;13.03;82.37;98602.84;5036598;28;20547;-75
2023/10/02 02:00:57;;;;;;;14.77;10.02;;;;;;;13.08;81.75;98600.34;5033218;28;20716;-75
2023/10/02 02:03:28;;;;;;;12.37;9.50;;;;;;;13.14;81.86;98598.69;5033426;28;20197;-76
2023/10/02 02:05:55;;;;;;;13.30;9.10;;;;;;;13.19;81.65;98600.84;5031720;28;20465;-75
2023/10/02 02:08:22;;;;;;;13.40;10.37;;;;;;;13.21;81.59;98604.19;5032975;28;20466;-76
2023/10/02 02:11:14;;;;;;;10.10;8.20;;;;;;;13.31;81.18;98605.50;5034537;28;20460;-75
2023/10/02 02:13:44;;;;;;;12.40;8.87;;;;;;;13.35;80.88;98612.16;5031863;28;20486;-76
2023/10/02 02:16:15;;;;;;;11.82;9.15;;;;;;;13.26;81.55;98601.72;5030245;28;20507;-75
2023/10/02 02:18:43;;;;;;;11.27;8.90;;;;;;;12.98;82.24;98571.91;5034122;28;20194;-75
2023/10/02 02:21:15;;;;;;;11.63;9.50;;;;;;;13.11;82.08;98593.69;5031418;28;20564;-76
2023/10/02 02:23:42;;;;;;;12.87;10.07;;;;;;;13.05;82.64;98600.75;5038177;28;20498;-75
2023/10/02 02:26:10;;;;;;;12.73;9.50;;;;;;;13.06;82.83;98601.59;5034691;28;20531;-75
2023/10/02 02:28:43;;;;;;;13.33;9.37;;;;;;;13.12;82.53;98592.63;5031616;28;20521;-75
2023/10/02 02:31:29;;;;;;;12.77;9.35;;;;;;;13.16;82.68;98601.25;5032635;28;20475;-75
2023/10/02 02:33:57;;;;;;;12.23;10.02;;;;;;;12.91;82.29;98579.19;5036198;28;21212;-75
2023/10/02 02:36:25;;;;;;;13.95;9.68;;;;;;;13.08;83.02;98604.94;5031523;28;20298;-76
2023/10/02 02:39:15;;;;;;;11.80;9.47;;;;;;;13.05;82.79;98600.75;5033955;28;20207;-75
2023/10/02 02:41:47;;;;;;;11.25;8.73;;;;;;;13.25;82.19;98606.31;5029269;28;20572;-75
2023/10/02 02:44:36;;;;;;;11.93;8.50;;;;;;;13.14;82.69;98606.84;5031783;28;20252;-76
2023/10/02 02:47:07;;;;;;;12.53;9.37;;;;;;;13.02;83.46;98611.19;5039092;28;20444;-75
2023/10/02 02:49:48;;;;;;;12.48;9.35;;;;;;;12.96;83.67;98612.88;5029201;28;20457;-75
2023/10/02 02:52:17;;;;;;;12.07;9.53;;;;;;;13.02;83.19;98586.75;5030273;28;20257;-75
2023/10/02 02:54:47;;;;;;;11.40;9.07;;;;;;;13.13;83.08;98607.91;5038167;28;20494;-75
2023/10/02 02:57:18;;;;;;;11.77;9.23;;;;;;;12.90;83.28;98575.66;5033588;28;20460;-75
2023/10/02 02:59:46;;;;;;;12.50;9.90;;;;;;;12.99;83.94;98608.91;5033340;28;20202;-75
2023/10/02 03:02:21;;;;;;;12.13;9.20;;;;;;;13.04;83.81;98609.13;5032634;28;20516;-75
2023/10/02 03:04:51;;;;;;;11.90;9.20;;;;;;;12.96;83.85;98606.59;5033151;28;20536;-75
2023/10/02 03:07:29;;;;;;;13.95;9.27;;;;;;;12.99;83.92;98598.03;5033293;28;20545;-75
2023/10/02 03:09:59;;;;;;;13.15;9.00;;;;;;;12.91;84.04;98595.50;5029154;28;20527;-75
2023/10/02 03:12:28;;;;;;;13.57;9.15;;;;;;;12.87;84.18;98586.91;5035969;28;20709;-75
2023/10/02 03:14:56;;;;;;;13.30;9.80;;;;;;;12.90;84.46;98604.69;5026691;28;20220;-75
2023/10/02 03:17:29;;;;;;;11.80;9.67;;;;;;;12.97;84.22;98606.41;5030320;28;20462;-75
2023/10/02 03:19:57;;;;;;;13.53;9.53;;;;;;;12.98;83.87;98599.09;5034163;28;20891;-76
2023/10/02 03:22:27;;;;;;;13.47;9.30;;;;;;;13.00;83.74;98602.41;5037380;28;20567;-75
2023/10/02 03:24:57;;;;;;;13.80;10.40;;;;;;;13.06;83.41;98597.00;5032802;28;20952;-75
2023/10/02 03:27:26;;;;;;;13.60;9.45;;;;;;;13.01;83.95;98604.09;5041319;28;20463;-75
2023/10/02 03:29:53;;;;;;;11.03;9.27;;;;;;;12.88;84.43;98601.34;5040543;28;20595;-75
2023/10/02 03:32:20;;;;;;;12.77;9.80;;;;;;;12.89;84.42;98603.84;5040547;28;20474;-75
2023/10/02 03:35:02;;;;;;;11.83;8.90;;;;;;;13.02;83.76;98611.19;5039423;28;20203;-76
2023/10/02 03:37:29;;;;;;;14.50;10.03;;;;;;;12.89;84.42;98611.16;5035767;28;20456;-75
2023/10/02 03:40:14;;;;;;;12.80;9.35;;;;;;;12.85;84.35;98618.88;5040036;28;20490;-75
2023/10/02 03:42:41;;;;;;;12.10;9.87;;;;;;;13.01;83.64;98612.25;5037931;28;20545;-75
2023/10/02 03:45:09;;;;;;;12.90;9.85;;;;;;;13.02;83.70;98622.06;5037464;28;20466;-75
2023/10/02 03:47:36;;;;;;;13.27;9.77;;;;;;;13.03;83.67;98621.88;5034603;28;20716;-75
2023/10/02 03:50:04;;;;;;;13.38;9.85;;;;;;;12.97;83.50;98619.16;5035077;28;20204;-76
2023/10/02 03:52:34;;;;;;;11.82;9.43;;;;;;;12.98;83.38;98615.38;5034546;28;20216;-75
2023/10/02 03:55:14;;;;;;;11.35;9.00;;;;;;;12.91;83.38;98622.66;5039837;28;20233;-75
2023/10/02 03:57:49;;;;;;;12.45;8.85;;;;;;;12.84;83.40;98613.66;5033453;28;20204;-76
2023/10/02 04:00:18;;;;;;;13.60;9.55;;;;;;;12.81;83.89;98625.75;5033190;28;20197;-75
2023/10/02 04:02:46;;;;;;;11.25;9.35;;;;;;;12.80;84.09;98621.34;5037805;28;20721;-75
2023/10/02 04:05:30;;;;;;;13.45;10.18;;;;;;;12.64;84.65;98616.28;5038086;28;20197;-76
2023/10/02 04:08:13;;;;;;;14.05;9.55;;;;;;;12.58;85.01;98614.38;5034430;28;20205;-75
2023/10/02 04:10:55;;;;;;;11.73;9.18;;;;;;;12.56;84.98;98605.56;5041382;28;20754;-75
2023/10/02 04:13:24;;;;;;;13.15;9.50;;;;;;;12.45;85.24;98604.25;5041588;28;20285;-75
2023/10/02 04:15:55;;;;;;;14.80;9.60;;;;;;;12.40;85.41;98601.28;5033319;28;20319;-75
2023/10/02 04:21:09;;;;;;;10.98;9.05;;;;;;;12.35;85.14;98604.59;5036197;28;20216;-75
2023/10/02 04:23:42;;;;;;;13.60;10.18;;;;;;;12.28;85.78;98602.91;5028082;28;20267;-75
2023/10/02 04:26:20;;;;;;;11.25;8.80;;;;;;;12.25;85.91;98608.75;5024995;28;20672;-75
2023/10/02 04:28:54;;;;;;;13.13;8.63;;;;;;;12.18;86.19;98610.56;5036552;28;20202;-75
2023/10/02 04:31:22;;;;;;;12.25;8.88;;;;;;;12.17;86.53;98608.88;5034390;28;20216;-76
2023/10/02 04:33:52;;;;;;;12.70;8.50;;;;;;;12.13;86.43;98610.31;5023634;28;20607;-76
2023/10/02 04:36:31;;;;;;;10.77;8.70;;;;;;;12.25;85.95;98603.31;5026047;28;20225;-75
2023/10/02 04:38:57;;;;;;;12.70;9.52;;;;;;;12.20;85.92;98606.63;5030541;28;20205;-75
2023/10/02 04:41:27;;;;;;;14.90;10.82;;;;;;;12.21;85.90;98612.88;5031676;28;20221;-75
2023/10/02 04:43:57;;;;;;;13.50;10.07;;;;;;;12.20;85.66;98605.78;5020034;28;20197;-76
2023/10/02 04:46:28;;;;;;;12.82;9.40;;;;;;;12.19;85.57;98609.53;5034847;28;20185;-76
2023/10/02 04:48:59;;;;;;;14.57;10.38;;;;;;;12.21;85.70;98608.28;5029757;28;20718;-76
2023/10/02 04:51:29;;;;;;;14.20;10.45;;;;;;;12.19;86.11;98614.94;5029089;28;20407;-76
2023/10/02 04:53:57;;;;;;;13.20;10.70;;;;;;;12.17;86.39;98612.44;5023751;28;20197;-75
2023/10/02 04:56:25;;;;;;;11.70;9.68;;;;;;;12.07;87.12;98618.19;5026831;28;20511;-74
2023/10/02 04:58:57;;;;;;;15.50;10.30;;;;;;;12.03;86.91;98600.63;5025028;28;20202;-76
2023/10/02 05:01:29;;;;;;;13.40;10.23;;;;;;;12.18;86.58;98616.00;5024080;28;20240;-75
2023/10/02 05:04:02;;;;;;;13.50;11.10;;;;;;;12.00;87.33;98617.34;5032813;28;20197;-74
2023/10/02 05:06:44;;;;;;;14.10;10.65;;;;;;;12.10;87.63;98614.25;5034981;28;20201;-74
2023/10/02 05:09:21;;;;;;;11.45;9.70;;;;;;;11.96;88.06;98613.34;5031174;28;20208;-74
2023/10/02 05:11:52;;;;;;;14.10;10.35;;;;;;;11.98;88.35;98619.41;5028182;28;20216;-71
2023/10/02 05:14:27;;;;;;;13.35;10.20;;;;;;;12.00;88.44;98617.34;5034284;28;20202;-78
2023/10/02 05:17:16;;;;;;;13.30;10.52;;;;;;;12.00;88.36;98614.63;5024431;28;20299;-74
2023/10/02 05:20:04;;;;;;;11.65;9.98;;;;;;;11.89;88.83;98611.59;5030938;28;20193;-73
2023/10/02 05:22:31;;;;;;;16.10;11.07;;;;;;;11.95;88.87;98618.97;5034808;28;20196;-73
2023/10/02 05:24:59;;;;;;;16.30;10.70;;;;;;;11.82;88.98;98611.53;5024964;28;20335;-73
2023/10/02 05:27:30;;;;;;;14.77;11.32;;;;;;;11.74;89.45;98623.31;5032140;28;20667;-73
2023/10/02 05:29:59;;;;;;;13.50;10.63;;;;;;;11.62;89.94;98611.34;5030197;28;20201;-74
2023/10/02 05:32:31;;;;;;;12.50;10.40;;;;;;;11.74;89.69;98611.63;5031890;28;20277;-75
2023/10/02 05:35:06;;;;;;;14.63;11.30;;;;;;;11.71;89.90;98618.28;5028099;28;20204;-72
2023/10/02 05:37:39;;;;;;;16.00;10.63;;;;;;;11.68;89.63;98626.00;5031596;28;20269;-77
2023/10/02 05:43:10;;;;;;;14.77;10.90;;;;;;;11.70;89.46;98621.19;5031402;28;20289;-73
2023/10/02 05:45:40;;;;;;;14.23;10.70;;;;;;;11.78;89.34;98621.09;5023510;28;20209;-73
2023/10/02 05:48:14;;;;;;;15.57;11.45;;;;;;;11.81;89.25;98623.41;5030128;28;20300;-75
2023/10/02 05:50:47;;;;;;;14.30;11.70;;;;;;;11.86;89.44;98628.25;5031047;28;20593;-75
2023/10/02 05:53:15;;;;;;;13.27;10.98;;;;;;;11.93;88.61;98632.72;5030811;28;20197;-74
2023/10/02 05:58:31;;;;;;;12.00;10.20;;;;;;;12.14;88.15;98633.69;5026088;28;20201;-74
2023/10/02 06:01:01;;;;;;;16.20;11.30;;;;;;;12.23;87.23;98636.06;5028396;28;20248;-75
2023/10/02 06:03:34;;;;;;;14.95;11.18;;;;;;;12.21;87.09;98632.72;5023106;28;20301;-74
2023/10/02 06:06:15;;;;;;;14.50;10.50;;;;;;;12.26;87.15;98626.69;5028659;28;20316;-74
2023/10/02 06:08:43;;;;;;;15.03;11.13;;;;;;;12.43;86.45;98630.75;5026711;28;20206;-74
2023/10/02 06:11:25;;;;;;;12.88;10.32;;;;;;;12.73;85.11;98636.78;5033752;28;20480;-74
2023/10/02 06:13:54;;;;;;;12.83;10.80;;;;;;;12.82;83.99;98632.03;5026361;28;20232;-75
2023/10/02 06:16:24;;;;;;;13.60;10.80;;;;;;;13.03;83.32;98634.63;5024067;28;20486;-74
2023/10/02 06:19:01;;;;;;;13.38;10.80;;;;;;;13.00;83.24;98640.44;5031711;28;20297;-74
2023/10/02 06:21:33;;;;;;;13.27;9.80;;;;;;;13.22;82.05;98638.50;5026870;28;20307;-79
2023/10/02 06:24:02;;;;;;;12.25;9.77;;;;;;;13.50;80.74;98632.91;5034609;28;20460;-74
2023/10/02 06:26:30;;;;;;;14.00;10.20;;;;;;;13.57;80.38;98641.94;5037169;28;20570;-76
2023/10/02 06:29:22;;;;;;;12.73;10.33;;;;;;;13.92;79.07;98640.72;5030028;28;20458;-76
2023/10/02 06:31:58;;;;;;;15.57;11.10;;;;;;;14.08;77.82;98640.28;5035304;28;20486;-75
2023/10/02 06:34:36;;;;;;;12.53;10.30;;;;;;;14.33;76.72;98645.06;5032917;28;20555;-75
2023/10/02 06:37:07;;;;;;;14.50;9.70;;;;;;;14.85;74.91;98637.88;5028171;28;20882;-74
2023/10/02 06:39:36;;;;;;;14.27;9.33;;;;;;;15.04;74.21;98635.06;5030387;28;20469;-76
2023/10/02 06:42:05;;;;;;;14.03;10.10;;;;;;;15.44;72.44;98634.88;5026254;28;20524;-74
2023/10/02 06:44:38;;;;;;;13.00;10.27;;;;;;;15.70;71.58;98628.44;5032703;28;20463;-74
2023/10/02 06:47:11;;;;;;;12.13;9.80;;;;;;;15.82;70.89;98634.88;5029814;28;21514;-74
2023/10/02 06:49:40;;;;;;;12.53;9.10;;;;;;;15.77;70.54;98629.25;5029552;28;20451;-74
2023/10/02 06:52:16;;;;;;;11.10;9.70;;;;;;;15.93;70.61;98636.88;5033904;28;20476;-74
2023/10/02 06:54:44;;;;;;;12.90;9.87;;;;;;;15.99;70.04;98638.72;5025933;28;20458;-75
2023/10/02 06:57:13;;;;;;;11.47;8.57;;;;;;;16.35;68.77;98642.63;5026838;28;20484;-75
2023/10/02 06:59:41;;;;;;;11.93;8.93;;;;;;;16.93;67.27;98640.34;5018650;28;21175;-75
2023/10/02 07:02:09;;;;;;;13.63;9.30;;;;;;;17.07;66.27;98636.41;5009933;28;20476;-74
2023/10/02 07:04:37;;;;;;;11.20;9.43;;;;;;;17.15;65.68;98640.75;5017804;28;20456;-75
2023/10/02 07:07:07;;;;;;;11.20;8.63;;;;;;;16.82;66.58;98640.31;5019619;28;20458;-75
2023/10/02 07:09:35;;;;;;;10.67;8.70;;;;;;;16.64;67.44;98647.41;5027685;28;20457;-75
2023/10/02 07:12:09;;;;;;;11.73;9.57;;;;;;;16.85;67.19;98639.84;5027242;28;20621;-75
2023/10/02 07:14:37;;;;;;;12.20;8.60;;;;;;;16.93;66.49;98639.53;5026668;28;20460;-75
2023/10/02 07:17:16;;;;;;;10.20;8.27;;;;;;;17.20;65.85;98640.06;5023329;28;21236;-74
2023/10/02 07:19:49;;;;;;;11.70;9.60;;;;;;;17.22;65.28;98644.22;5007504;28;20560;-75
2023/10/02 07:22:24;;;;;;;12.83;9.00;;;;;;;17.67;63.99;98624.69;5021689;28;20464;-75
2023/10/02 07:24:56;;;;;;;11.50;9.97;;;;;;;18.29;62.45;98633.38;5027929;28;20448;-75
2023/10/02 07:27:25;;;;;;;12.30;8.63;;;;;;;18.34;61.77;98630.78;5029420;28;20538;-75
2023/10/02 07:29:57;;;;;;;12.10;9.30;;;;;;;18.28;61.41;98623.50;5019133;28;20455;-75
2023/10/02 07:32:26;;;;;;;14.93;9.80;;;;;;;18.50;60.89;98627.31;5029149;28;20476;-75
2023/10/02 07:34:53;;;;;;;10.67;9.13;;;;;;;18.98;59.56;98627.06;5025710;28;20511;-76
2023/10/02 07:37:24;;;;;;;9.70;8.60;;;;;;;19.79;57.38;98622.38;5025143;28;20576;-76
2023/10/02 07:39:56;;;;;;;11.00;9.50;;;;;;;19.79;56.57;98633.38;5028390;28;20627;-75
2023/10/02 07:42:24;;;;;;;10.80;9.00;;;;;;;19.46;57.44;98632.16;5022336;28;21286;-74
2023/10/02 07:44:52;;;;;;;9.83;8.60;;;;;;;19.98;56.79;98623.81;5023353;28;20470;-75
2023/10/02 07:47:21;;;;;;;11.80;9.03;;;;;;;20.44;54.66;98624.59;5029734;28;20461;-75
2023/10/02 07:49:51;;;;;;;10.77;8.90;;;;;;;20.14;54.86;98620.22;5025579;28;20902;-75
2023/10/02 07:52:29;;;;;;;12.10;9.20;;;;;;;20.36;55.07;98630.47;5034589;28;20461;-75
2023/10/02 07:54:59;;;;;;;9.13;8.23;;;;;;;20.74;54.04;98626.97;5025668;28;20996;-75
2023/10/02 07:57:32;;;;;;;10.27;8.97;;;;;;;20.98;53.04;98625.66;5005804;28;20593;-73
2023/10/02 08:00:01;;;;;;;11.80;9.43;;;;;;;21.25;52.77;98624.91;5006356;28;21509;-73
2023/10/02 08:02:33;;;;;;;11.43;8.57;;;;;;;21.73;51.48;98626.84;5018110;28;20483;-74
2023/10/02 08:05:03;;;;;;;11.20;9.17;;;;;;;22.01;50.25;98623.84;5017451;28;20455;-74
2023/10/02 08:07:30;;;;;;;10.03;8.63;;;;;;;22.25;49.72;98623.50;5019222;28;20471;-74
2023/10/02 08:09:59;;;;;;;12.20;9.47;;;;;;;22.55;49.21;98620.97;5034248;28;20447;-74
2023/10/02 08:12:34;;;;;;;13.60;9.70;;;;;;;22.52;48.58;98618.72;5038338;28;20874;-75
2023/10/02 08:15:26;;;;;;;11.03;9.43;;;;;;;22.23;49.68;98631.19;5035950;28;21750;-76
2023/10/02 08:18:04;;;;;;;11.60;8.87;;;;;;;22.37;49.16;98610.34;5034333;28;20929;-75
2023/10/02 08:20:37;;;;;;;10.10;8.70;;;;;;;22.54;48.39;98622.06;5032898;28;20517;-76
2023/10/02 08:23:21;;;;;;;10.90;8.70;;;;;;;22.52;48.67;98618.72;5025798;28;20458;-75
2023/10/02 08:26:00;;;;;;;12.17;9.27;;;;;;;22.37;48.17;98624.16;5029839;28;20508;-76
2023/10/02 08:28:29;;;;;;;10.10;8.10;;;;;;;23.08;48.06;98621.84;5029154;28;20524;-75
2023/10/02 08:31:01;;;;;;;12.00;9.60;;;;;;;22.84;47.11;98620.63;5031036;28;20555;-74
2023/10/02 08:33:30;;;;;;;11.93;9.80;;;;;;;23.50;46.36;98618.97;5036641;28;20476;-74
2023/10/02 08:36:01;;;;;;;11.83;9.70;;;;;;;23.73;45.86;98617.66;5028595;28;20991;-74
2023/10/02 08:38:28;;;;;;;11.40;9.57;;;;;;;24.37;44.88;98617.22;5033756;28;20517;-74
2023/10/02 08:41:00;;;;;;;11.57;9.43;;;;;;;24.33;43.81;98611.44;5033432;28;20527;-82
2023/10/02 08:43:28;;;;;;;12.37;9.77;;;;;;;23.83;45.23;98617.72;5023579;28;20463;-69
2023/10/02 08:45:55;;;;;;;11.00;8.90;;;;;;;24.20;44.47;98606.41;5030136;28;20845;-73
2023/10/02 08:48:22;;;;;;;11.43;9.90;;;;;;;25.30;42.44;98598.19;5026480;28;20532;-73
2023/10/02 08:50:49;;;;;;;11.30;9.40;;;;;;;25.63;41.91;98606.91;5035340;28;20566;-74
2023/10/02 08:53:22;;;;;;;12.10;10.20;;;;;;;26.26;40.38;98598.72;5026577;28;20448;-74
2023/10/02 08:55:59;;;;;;;12.90;9.40;;;;;;;25.63;41.33;98604.97;5032068;28;20577;-74
2023/10/02 08:58:29;;;;;;;11.10;9.67;;;;;;;26.07;40.35;98588.28;5030662;28;20520;-74
2023/10/02 09:01:17;;;;;;;13.60;9.57;;;;;;;27.01;39.28;98590.78;5033165;28;20472;-75
2023/10/02 09:03:49;;;;;;;10.67;9.20;;;;;;;27.16;38.10;98603.69;5029262;28;20831;-74
2023/10/02 09:06:28;;;;;;;12.53;10.70;;;;;;;27.81;36.12;98596.44;5022743;28;20475;-74
2023/10/02 09:09:16;;;;;;;12.13;10.00;;;;;;;27.25;37.32;98593.56;5024876;28;20471;-72
2023/10/02 09:11:44;;;;;;;12.00;9.80;;;;;;;26.95;37.70;98594.72;5030933;28;20555;-73
2023/10/02 09:14:21;;;;;;;12.40;10.60;;;;;;;27.15;37.80;98608.41;5031027;28;20535;-73
2023/10/02 09:17:07;;;;;;;11.17;9.30;;;;;;;26.83;38.78;98599.84;5027296;28;21388;-73
2023/10/02 09:19:34;;;;;;;10.90;9.40;;;;;;;26.36;39.68;98599.47;5028303;28;20464;-73
2023/10/02 09:22:10;;;;;;;13.47;10.40;;;;;;;26.56;39.12;98592.06;5023180;28;20959;-73
2023/10/02 09:24:38;;;;;;;10.73;9.23;;;;;;;26.40;39.40;98599.72;5027632;28;20456;-73
2023/10/02 09:30:19;;;;;;;12.80;11.50;;;;;;;26.81;37.65;98593.75;5021154;28;20538;-73
2023/10/02 09:32:49;;;;;;;13.90;11.10;;;;;;;26.65;38.13;98591.13;5029535;28;20467;-73
2023/10/02 09:35:22;;;;;;;11.93;10.60;;;;;;;26.65;37.63;98580.03;5028618;28;20460;-74
2023/10/02 09:37:55;;;;;;;11.77;10.07;;;;;;;26.86;36.81;98579.81;5027382;28;20978;-73
2023/10/02 09:40:24;;;;;;;10.97;9.87;;;;;;;27.27;36.60;98588.53;5026702;28;20494;-73
2023/10/02 09:43:00;;;;;;;12.03;9.97;;;;;;;27.87;36.09;98583.28;5029897;28;20440;-76
2023/10/02 09:45:34;;;;;;;12.60;10.33;;;;;;;27.89;35.27;98584.63;5024797;28;20495;-76
2023/10/02 09:48:05;;;;;;;12.07;9.90;;;;;;;27.94;34.67;98573.38;5031213;28;21234;-76
2023/10/02 09:50:37;;;;;;;12.20;9.73;;;;;;;27.70;35.23;98579.03;5034653;28;21036;-74
2023/10/02 09:53:08;;;;;;;12.00;9.57;;;;;;;27.46;36.08;98571.88;5030509;28;20495;-85
2023/10/02 09:55:51;;;;;;;12.47;9.63;;;;;;;28.20;33.92;98570.22;5036940;28;20871;-69
2023/10/02 09:58:27;;;;;;;11.00;9.90;;;;;;;28.66;33.58;98567.44;5031933;28;20487;-74
2023/10/02 10:01:33;;;;;;;12.43;10.30;;;;;;;28.95;33.52;98564.41;5031965;28;20484;-74
2023/10/02 10:04:00;;;;;;;12.10;9.70;;;;;;;28.99;33.75;98557.09;5034587;28;20546;-73
2023/10/02 10:06:29;;;;;;;10.77;9.67;;;;;;;28.99;32.91;98559.88;5028806;28;20459;-75
2023/10/02 10:09:25;;;;;;;11.80;8.93;;;;;;;29.62;32.05;98562.72;5027628;28;21020;-75
2023/10/02 10:14:37;;;;;;;10.10;9.03;;;;;;;29.48;32.08;98550.78;5032348;28;20456;-75
2023/10/02 10:17:12;;;;;;;12.00;10.40;;;;;;;29.97;30.77;98555.47;5028940;28;20460;-76
2023/10/02 10:19:41;;;;;;;11.53;10.33;;;;;;;30.41;30.96;98551.03;5036984;28;20470;-74
2023/10/02 10:22:34;;;;;;;12.57;9.57;;;;;;;30.67;30.49;98562.41;5029248;28;20472;-76
2023/10/02 10:27:55;;;;;;;13.07;10.93;;;;;;;31.19;29.41;98531.88;5027870;28;20455;-74
2023/10/02 10:30:33;;;;;;;11.80;10.60;;;;;;;31.19;29.32;98549.47;5037685;28;20983;-75
2023/10/02 10:33:40;;;;;;;12.67;10.80;;;;;;;31.01;29.50;98536.56;5038786;28;20466;-78
2023/10/02 10:36:34;;;;;;;12.57;10.10;;;;;;;31.46;29.13;98541.97;5021920;28;20462;-76
2023/10/02 10:39:30;;;;;;;14.00;11.00;;;;;;;31.97;28.03;98536.41;5020730;28;20538;-76
2023/10/02 10:41:57;;;;;;;13.60;11.87;;;;;;;31.80;27.58;98544.84;5033594;28;20466;-76
2023/10/02 10:44:38;;;;;;;12.97;11.57;;;;;;;31.76;27.57;98534.63;5030757;28;20479;-78
2023/10/02 10:47:04;;;;;;;13.40;11.87;;;;;;;31.23;28.33;98530.88;5030264;28;20898;-77
2023/10/02 10:49:53;;;;;;;12.77;11.47;;;;;;;31.06;28.58;98533.63;5028477;28;20459;-76
2023/10/02 10:52:34;;;;;;;15.20;11.80;;;;;;;31.70;28.07;98526.38;5029913;28;20609;-77
2023/10/02 10:55:32;;;;;;;14.40;12.20;;;;;;;31.94;26.61;98523.06;5032624;28;20463;-77
2023/10/02 10:58:00;;;;;;;15.00;13.10;;;;;;;32.49;25.90;98513.94;5028073;28;20495;-77
2023/10/02 11:00:31;;;;;;;14.37;12.50;;;;;;;31.65;26.42;98526.50;5026587;28;20610;-78
2023/10/02 11:03:01;;;;;;;13.10;11.70;;;;;;;31.89;27.04;98512.03;5029923;28;20444;-77
2023/10/02 11:05:35;;;;;;;13.40;11.97;;;;;;;32.29;26.55;98520.25;5029981;28;20545;-77
2023/10/02 11:08:28;;;;;;;14.77;11.97;;;;;;;32.08;26.89;98519.28;5031007;28;20483;-77
2023/10/02 11:11:11;;;;;;;13.10;11.70;;;;;;;31.73;26.38;98511.72;5034138;28;21051;-77
2023/10/02 11:13:50;;;;;;;14.70;12.60;;;;;;;32.04;26.31;98513.53;5038590;28;21021;-77
2023/10/02 11:16:36;;;;;;;14.30;12.10;;;;;;;32.56;25.25;98510.63;5036746;28;20460;-77
2023/10/02 11:19:21;;;;;;;13.27;11.87;;;;;;;32.92;25.22;98504.56;5037992;28;20507;-77
2023/10/02 11:22:15;;;;;;;13.00;11.60;;;;;;;31.99;25.52;98508.09;5036762;28;20514;-77
2023/10/02 11:24:44;;;;;;;13.63;12.10;;;;;;;32.75;24.85;98494.25;5035607;28;20577;-77
2023/10/02 11:27:14;;;;;;;14.77;13.10;;;;;;;32.51;24.37;98499.56;5027716;28;20488;-77
2023/10/02 11:29:42;;;;;;;13.70;12.23;;;;;;;32.22;24.61;98495.53;5034117;28;20827;-77
2023/10/02 11:32:20;;;;;;;14.13;12.40;;;;;;;32.76;24.18;98490.28;5031789;28;20982;-77
2023/10/02 11:34:47;;;;;;;14.30;12.80;;;;;;;32.81;23.80;98480.88;5036195;28;20460;-78
2023/10/02 11:37:16;;;;;;;13.80;12.23;;;;;;;32.78;24.22;98493.59;5031960;28;20506;-77
2023/10/02 11:39:44;;;;;;;13.47;12.07;;;;;;;32.62;24.22;98479.25;5032427;28;20511;-77
2023/10/02 11:42:11;;;;;;;14.40;13.00;;;;;;;33.36;23.12;98481.56;5032927;28;20463;-77
2023/10/02 11:44:39;;;;;;;12.60;11.40;;;;;;;33.89;23.32;98470.72;5038823;28;20447;-83
2023/10/02 11:47:09;;;;;;;14.40;12.63;;;;;;;33.74;22.18;98472.16;5028837;28;20459;-78
2023/10/02 11:49:36;;;;;;;15.83;14.13;;;;;;;33.70;21.68;98472.03;5023756;28;20485;-72
2023/10/02 11:52:04;;;;;;;15.43;13.20;;;;;;;33.71;20.55;98464.44;5034975;28;21031;-76
2023/10/02 11:54:36;;;;;;;14.27;12.73;;;;;;;32.30;22.89;98471.47;5026411;28;20455;-75
2023/10/02 11:57:08;;;;;;;15.50;12.60;;;;;;;30.97;25.43;98469.25;5032317;28;21005;-75
2023/10/02 11:59:36;;;;;;;15.40;12.97;;;;;;;30.81;24.24;98464.47;5035269;28;20492;-71
2023/10/02 12:02:03;;;;;;;16.03;13.93;;;;;;;31.18;23.35;98463.09;5030123;28;20551;-72
2023/10/02 12:04:31;;;;;;;15.33;13.57;;;;;;;32.00;22.45;98457.34;5036259;28;20523;-72
2023/10/02 12:06:58;;;;;;;16.07;12.80;;;;;;;31.39;24.16;98453.72;5032410;28;20518;-71